Santa Maria Manuela — CSKO — position and weather

sailwx.info

Track history (hours):
 
Tides and Currents Weather Stations Pressure Air Temp Water Temp Dewpoint Dewpoint Depression Visibility Wind Speed Wind Dir Waves Ship Positions

Santa Maria Manuela

Last reported at 2019-Oct-07 22:13 UTC. Time now 2019-Oct-17 15:41 UTC.
Position N 33°45' W 015°24'.
Warning: this ship's position is 9 days out of date.

Length 68 m; draft 4.3 m.

Type: Sailing vessel. MMSI: 255806006.

Date/timePositionNaut miles runAvg speedWind from/ knotsBaromVisibWave heightAir tempDewpointWater temp
2019-Oct-07 22:13N 33°45' W 015°24'1 4.8
2019-Oct-07 21:56N 33°46' W 015°23'16 5.5
2019-Oct-07 19:04N 33°51' W 015°05'2 5.8
2019-Oct-07 18:38N 33°52' W 015°02'2 5.6
2019-Oct-07 18:18N 33°52' W 015°00'2 5.6
2019-Oct-07 17:53N 33°53' W 014°58'3 5.6
2019-Oct-07 17:27N 33°54' W 014°55'3 5.6
2019-Oct-07 16:53N 33°56' W 014°51'3 5.4
2019-Oct-07 16:25N 33°57' W 014°49'5 5.3
2019-Oct-07 15:31N 33°59' W 014°43'0 5.2
2019-Oct-07 15:27N 33°59' W 014°43'2 5.2
2019-Oct-07 15:01N 33°60' W 014°40'6 5.2
2019-Oct-07 13:55N 34°02' W 014°34'4 5.6
2019-Oct-07 13:11N 34°04' W 014°30'3 5.1
2019-Oct-07 12:33N 34°05' W 014°26'1 5.8
2019-Oct-07 12:26N 34°06' W 014°26'4 5.1
2019-Oct-07 11:42N 34°08' W 014°22'1 5.2
2019-Oct-07 11:25N 34°08' W 014°20'10 5.0
2019-Oct-07 09:28N 34°12' W 014°09'3 4.5
2019-Oct-07 08:42N 34°14' W 014°06'1 4.6
2019-Oct-07 08:27N 34°14' W 014°04'4 4.6
2019-Oct-07 07:30N 34°15' W 013°59'5 4.9
2019-Oct-07 06:31N 34°17' W 013°54'0 5.1
2019-Oct-07 06:29N 34°17' W 013°54'3 5.3
2019-Oct-07 05:58N 34°18' W 013°51'8 5.2
2019-Oct-07 04:24N 34°22' W 013°42'7 5.4
2019-Oct-07 03:13N 34°24' W 013°34'1 5.5
2019-Oct-07 02:58N 34°25' W 013°33'22 5.9
2019-Oct-06 23:16N 34°32' W 013°08'151 4.6
2019-Oct-05 14:24N 36°49' W 011°49'47 5.2
2019-Oct-05 05:16N 37°23' W 011°07'1 5.1
2019-Oct-05 04:58N 37°24' W 011°06'4 4.9
2019-Oct-05 04:11N 37°27' W 011°03'2 4.8
2019-Oct-05 03:44N 37°29' W 011°02'2 4.7
2019-Oct-05 03:23N 37°30' W 011°01'2 4.7
2019-Oct-05 03:01N 37°32' W 010°59'2 4.9
2019-Oct-05 02:30N 37°34' W 010°57'3 4.9
2019-Oct-05 01:52N 37°36' W 010°55'2 5.0
2019-Oct-05 01:30N 37°37' W 010°53'3 4.9
2019-Oct-05 00:59N 37°39' W 010°51'2 4.9
2019-Oct-05 00:31N 37°40' W 010°48'3 5.1
2019-Oct-04 23:57N 37°42' W 010°46'3 5.4
2019-Oct-04 23:28N 37°44' W 010°43'3 5.5
2019-Oct-04 22:56N 37°46' W 010°40'2 5.3
2019-Oct-04 22:30N 37°47' W 010°38'3 5.2
2019-Oct-04 22:00N 37°49' W 010°36'3 5.1
2019-Oct-04 21:26N 37°51' W 010°33'3 5.0
2019-Oct-04 20:44N 37°53' W 010°30'1 4.9
2019-Oct-04 20:30N 37°54' W 010°29'2 4.9
2019-Oct-04 20:01N 37°56' W 010°26'4 5.1
2019-Oct-04 19:08N 37°58' W 010°22'1 5.2
2019-Oct-04 19:01N 37°58' W 010°21'4 5.4
2019-Oct-04 18:17N 38°00' W 010°17'2 5.8
2019-Oct-04 18:00N 38°01' W 010°15'3 5.7
2019-Oct-04 17:31N 38°03' W 010°12'3 5.7
2019-Oct-04 17:00N 38°04' W 010°09'3 5.8
2019-Oct-04 16:28N 38°06' W 010°06'3 6.0
2019-Oct-04 15:56N 38°08' W 010°03'3 5.8
2019-Oct-04 15:23N 38°11' W 009°60'2 5.9
2019-Oct-04 15:00N 38°12' W 009°57'3 6.2
2019-Oct-04 14:28N 38°14' W 009°54'3 6.4
2019-Oct-04 14:00N 38°16' W 009°51'3 6.9
2019-Oct-04 13:30N 38°18' W 009°48'4 7.1
2019-Oct-04 13:00N 38°20' W 009°44'3 7.0
2019-Oct-04 12:30N 38°22' W 009°41'3 6.8
2019-Oct-04 12:00N 38°24' W 009°37'3 6.8
2019-Oct-04 11:31N 38°27' W 009°34'3 6.8
2019-Oct-04 11:01N 38°29' W 009°31'3 6.9
2019-Oct-04 10:30N 38°32' W 009°29'3 7.0
2019-Oct-04 10:01N 38°35' W 009°26'4 7.1
2019-Oct-04 09:31N 38°37' W 009°22'4 8.2
2019-Oct-04 09:00N 38°40' W 009°19'4 8.4
2019-Oct-04 08:31N 38°41' W 009°14'4 8.4
2019-Oct-04 08:00N 38°42' W 009°08'4 7.8
2019-Oct-04 07:29N 38°45' W 009°05'0 0.1
2019-Oct-04 06:59N 38°46' W 009°05'0 0.0
2019-Oct-04 06:26N 38°46' W 009°05'0 0.0
2019-Oct-04 05:57N 38°46' W 009°05'0 0.0
2019-Oct-04 05:30N 38°46' W 009°05'0 0.0
2019-Oct-04 05:00N 38°46' W 009°05'0 0.0
2019-Oct-04 04:30N 38°46' W 009°05'0 0.0
2019-Oct-04 04:00N 38°46' W 009°05'0 0.0
2019-Oct-04 03:30N 38°46' W 009°05'0 0.0
2019-Oct-04 02:57N 38°46' W 009°05'0 0.0
2019-Oct-04 02:31N 38°46' W 009°05'0 0.0
2019-Oct-04 02:00N 38°46' W 009°05'0 0.0
2019-Oct-04 01:30N 38°46' W 009°05'0 0.0
2019-Oct-04 01:00N 38°46' W 009°05'0 0.0
2019-Oct-04 00:30N 38°46' W 009°05'0 0.0
2019-Oct-04 00:00N 38°46' W 009°05'0 0.0
2019-Oct-03 23:28N 38°46' W 009°05'0 0.0
2019-Oct-03 23:00N 38°46' W 009°05'0 0.0
2019-Oct-03 22:30N 38°46' W 009°05'0 0.0
2019-Oct-03 22:00N 38°46' W 009°05'0 0.0
2019-Oct-03 21:30N 38°46' W 009°05'0 0.0
2019-Oct-03 21:00N 38°46' W 009°05'0 0.0
2019-Oct-03 20:27N 38°46' W 009°05'0 0.0
2019-Oct-03 20:00N 38°46' W 009°05'0 0.0
2019-Oct-03 19:30N 38°46' W 009°05'0 0.0
2019-Oct-03 19:00N 38°46' W 009°05'0 0.0
2019-Oct-03 18:30N 38°46' W 009°05'0 0.0
2019-Oct-03 18:00N 38°46' W 009°05'0 0.0
2019-Oct-03 17:30N 38°46' W 009°05'0 0.0
2019-Oct-03 17:00N 38°46' W 009°05'0 0.0
2019-Oct-03 16:30N 38°46' W 009°05'0 0.0
2019-Oct-03 16:00N 38°46' W 009°05'0 0.0
2019-Oct-03 15:30N 38°46' W 009°05'0 0.0
2019-Oct-03 15:00N 38°46' W 009°05'0 0.0
2019-Oct-03 14:30N 38°46' W 009°05'0 0.0
2019-Oct-03 14:00N 38°46' W 009°05'0 0.0
2019-Oct-03 13:27N 38°46' W 009°05'0 0.0
2019-Oct-03 13:00N 38°46' W 009°05'0 0.0
2019-Oct-03 12:30N 38°46' W 009°05'0 0.0
2019-Oct-03 12:00N 38°46' W 009°05'0 0.0
2019-Oct-03 11:30N 38°46' W 009°05'0 0.0
2019-Oct-03 11:00N 38°46' W 009°05'0 0.0
2019-Oct-03 10:30N 38°46' W 009°05'0 0.0
2019-Oct-03 10:00N 38°46' W 009°05'0 0.0
2019-Oct-03 09:27N 38°46' W 009°05'0 0.0
2019-Oct-03 09:00N 38°46' W 009°05'0 0.0
2019-Oct-03 08:30N 38°46' W 009°05'0 0.0
2019-Oct-03 08:00N 38°46' W 009°05'0 0.0
2019-Oct-03 07:30N 38°46' W 009°05'0 0.0
2019-Oct-03 07:00N 38°46' W 009°05'0 0.0
2019-Oct-03 06:30N 38°46' W 009°05'0 0.0
2019-Oct-03 06:00N 38°46' W 009°05'0 0.0
2019-Oct-03 05:30N 38°46' W 009°05'0 0.0
2019-Oct-03 04:57N 38°46' W 009°05'0 0.0
2019-Oct-03 04:30N 38°46' W 009°05'0 0.0
2019-Oct-03 04:00N 38°46' W 009°05'0 0.0
2019-Oct-03 03:30N 38°46' W 009°05'0 0.0
2019-Oct-03 02:57N 38°46' W 009°05'0 0.0
2019-Oct-03 02:27N 38°46' W 009°05'0 0.0
2019-Oct-03 01:58N 38°46' W 009°05'0 0.0
2019-Oct-03 01:30N 38°46' W 009°05'0 0.0
2019-Oct-03 01:00N 38°46' W 009°05'0 0.0
2019-Oct-03 00:30N 38°46' W 009°05'0 0.0
2019-Oct-03 00:00N 38°46' W 009°05'0 0.0
2019-Oct-02 23:30N 38°46' W 009°05'0 0.0
2019-Oct-02 23:00N 38°46' W 009°05'0 0.0
2019-Oct-02 22:30N 38°46' W 009°05'0 0.0
2019-Oct-02 22:00N 38°46' W 009°05'0 0.0
2019-Oct-02 21:30N 38°46' W 009°05'0 0.0
2019-Oct-02 21:00N 38°46' W 009°05'0 0.0
2019-Oct-02 20:30N 38°46' W 009°05'0 0.0
2019-Oct-02 20:00N 38°46' W 009°05'0 0.0
2019-Oct-02 19:30N 38°46' W 009°05'0 0.0
2019-Oct-02 19:00N 38°46' W 009°05'0 0.0
2019-Oct-02 18:27N 38°46' W 009°05'0 0.0
2019-Oct-02 18:00N 38°46' W 009°05'0 0.0
2019-Oct-02 17:30N 38°46' W 009°05'0 0.0
2019-Oct-02 17:00N 38°46' W 009°05'0 0.0
2019-Oct-02 16:30N 38°46' W 009°05'0 0.0
2019-Oct-02 16:00N 38°46' W 009°05'0 0.0
2019-Oct-02 15:30N 38°46' W 009°05'0 0.0
2019-Oct-02 15:00N 38°46' W 009°05'0 0.0
2019-Oct-02 14:30N 38°46' W 009°05'0 0.0
2019-Oct-02 14:00N 38°46' W 009°05'0 0.0
2019-Oct-02 13:30N 38°46' W 009°05'0 0.1
2019-Oct-02 13:01N 38°46' W 009°05'3 6.8
2019-Oct-02 12:30N 38°42' W 009°07'4 7.9
2019-Oct-02 12:01N 38°41' W 009°12'3 5.8
2019-Oct-02 11:30N 38°41' W 009°16'2 4.7
2019-Oct-02 11:00N 38°40' W 009°18'2 5.0
2019-Oct-02 10:30N 38°38' W 009°21'2 3.9
2019-Oct-02 10:00N 38°37' W 009°23'1 2.9
2019-Oct-02 09:30N 38°36' W 009°24'1 2.8
2019-Oct-02 09:00N 38°34' W 009°24'2 4.1
2019-Oct-02 08:30N 38°32' W 009°24'2 3.9
2019-Oct-02 08:01N 38°31' W 009°25'2 4.2
2019-Oct-02 07:30N 38°28' W 009°25'2 3.9
2019-Oct-02 07:00N 38°27' W 009°26'2 3.6
2019-Oct-02 06:30N 38°25' W 009°26'2 3.3
2019-Oct-02 06:00N 38°23' W 009°27'2 3.5
2019-Oct-02 05:30N 38°21' W 009°27'2 3.5
2019-Oct-02 05:00N 38°20' W 009°28'2 3.2
2019-Oct-02 04:31N 38°18' W 009°28'2 3.0
2019-Oct-02 04:00N 38°17' W 009°28'2 3.1
2019-Oct-02 03:31N 38°15' W 009°29'2 3.9
2019-Oct-02 03:00N 38°13' W 009°29'2 3.7
2019-Oct-02 02:31N 38°11' W 009°29'2 3.8
2019-Oct-02 02:00N 38°10' W 009°29'2 3.9
2019-Oct-02 01:30N 38°08' W 009°30'2 3.7
2019-Oct-02 01:00N 38°06' W 009°30'2 3.8
2019-Oct-02 00:30N 38°04' W 009°31'2 3.7
2019-Oct-02 00:00N 38°02' W 009°31'2 3.7
2019-Oct-01 23:30N 38°00' W 009°31'2 3.7
2019-Oct-01 23:01N 37°58' W 009°31'2 3.7
2019-Oct-01 22:29N 37°57' W 009°31'3 4.1
2019-Oct-01 21:41N 37°53' W 009°31'1 4.1
2019-Oct-01 21:23N 37°52' W 009°31'2 3.3
2019-Oct-01 20:50N 37°50' W 009°31'1 3.3
2019-Oct-01 20:30N 37°49' W 009°31'52 4.0
2019-Oct-01 07:16N 36°58' W 009°19'38 4.0
2019-Sep-30 21:48N 36°38' W 008°39'3 4.0
2019-Sep-30 20:59N 36°37' W 008°35'2 4.4
2019-Sep-30 20:26N 36°36' W 008°32'3 4.4
2019-Sep-30 19:47N 36°35' W 008°29'1 4.2
2019-Sep-30 19:28N 36°35' W 008°27'2 4.6
2019-Sep-30 19:00N 36°34' W 008°25'2 4.7
2019-Sep-30 18:28N 36°33' W 008°22'3 5.6
2019-Sep-30 17:59N 36°32' W 008°19'7 5.6
2019-Sep-30 16:45N 36°30' W 008°10'1 5.6
2019-Sep-30 16:29N 36°30' W 008°09'3 5.6
2019-Sep-30 16:00N 36°29' W 008°05'3 5.6
2019-Sep-30 15:30N 36°28' W 008°02'6 5.6
2019-Sep-30 14:24N 36°26' W 007°55'2 5.8
2019-Sep-30 14:00N 36°26' W 007°52'3 5.8
2019-Sep-30 13:28N 36°25' W 007°48'3 5.8
2019-Sep-30 12:57N 36°24' W 007°45'3 6.0
2019-Sep-30 12:22N 36°22' W 007°41'2 6.1
2019-Sep-30 12:00N 36°22' W 007°38'3 6.1
2019-Sep-30 11:30N 36°21' W 007°35'3 6.1
2019-Sep-30 11:00N 36°20' W 007°31'3 6.3
2019-Sep-30 10:30N 36°18' W 007°28'3 6.3
2019-Sep-30 10:00N 36°17' W 007°24'3 6.1
2019-Sep-30 09:30N 36°16' W 007°20'3 6.1
2019-Sep-30 08:59N 36°15' W 007°16'3 6.3
2019-Sep-30 08:30N 36°14' W 007°13'3 6.3
2019-Sep-30 08:00N 36°13' W 007°09'3 6.4
2019-Sep-30 07:30N 36°12' W 007°05'3 6.2
2019-Sep-30 07:00N 36°11' W 007°02'3 6.2
2019-Sep-30 06:30N 36°11' W 006°58'3 6.6
2019-Sep-30 06:00N 36°10' W 006°54'4 6.9
2019-Sep-30 05:29N 36°09' W 006°50'3 6.9
2019-Sep-30 05:00N 36°08' W 006°46'4 7.4
2019-Sep-30 04:31N 36°07' W 006°42'4 7.3
2019-Sep-30 04:00N 36°05' W 006°37'39 0.8
2019-Sep-28 03:16N 35°56' W 005°51'3 5.1
2019-Sep-28 02:39N 35°56' W 005°55'2 4.7
2019-Sep-28 02:18N 35°58' W 005°56'3 4.9
2019-Sep-28 01:40N 36°00' W 005°59'2 3.7
2019-Sep-28 01:15N 36°01' W 005°60'  
Track history (hours):
 
Tides and Currents Weather Stations Pressure Air Temp Water Temp Dewpoint Dewpoint Depression Visibility Wind Speed Wind Dir Waves Ship Positions

Santa Maria Manuela

Last reported at 2019-Oct-07 22:13 UTC. Time now 2019-Oct-17 15:41 UTC.
Position N 33°45' W 015°24'.
Warning: this ship's position is 9 days out of date.

Length 68 m; draft 4.3 m.

Type: Sailing vessel. MMSI: 255806006.

Date/timePositionNaut miles runAvg speedWind from/ knotsBaromVisibWave heightAir tempDewpointWater temp
2019-Oct-07 22:13N 33°45' W 015°24'1 4.8
2019-Oct-07 21:56N 33°46' W 015°23'16 5.5
2019-Oct-07 19:04N 33°51' W 015°05'2 5.8
2019-Oct-07 18:38N 33°52' W 015°02'2 5.6
2019-Oct-07 18:18N 33°52' W 015°00'2 5.6
2019-Oct-07 17:53N 33°53' W 014°58'3 5.6
2019-Oct-07 17:27N 33°54' W 014°55'3 5.6
2019-Oct-07 16:53N 33°56' W 014°51'3 5.4
2019-Oct-07 16:25N 33°57' W 014°49'5 5.3
2019-Oct-07 15:31N 33°59' W 014°43'0 5.2
2019-Oct-07 15:27N 33°59' W 014°43'2 5.2
2019-Oct-07 15:01N 33°60' W 014°40'6 5.2
2019-Oct-07 13:55N 34°02' W 014°34'4 5.6
2019-Oct-07 13:11N 34°04' W 014°30'3 5.1
2019-Oct-07 12:33N 34°05' W 014°26'1 5.8
2019-Oct-07 12:26N 34°06' W 014°26'4 5.1
2019-Oct-07 11:42N 34°08' W 014°22'1 5.2
2019-Oct-07 11:25N 34°08' W 014°20'10 5.0
2019-Oct-07 09:28N 34°12' W 014°09'3 4.5
2019-Oct-07 08:42N 34°14' W 014°06'1 4.6
2019-Oct-07 08:27N 34°14' W 014°04'4 4.6
2019-Oct-07 07:30N 34°15' W 013°59'5 4.9
2019-Oct-07 06:31N 34°17' W 013°54'0 5.1
2019-Oct-07 06:29N 34°17' W 013°54'3 5.3
2019-Oct-07 05:58N 34°18' W 013°51'8 5.2
2019-Oct-07 04:24N 34°22' W 013°42'7 5.4
2019-Oct-07 03:13N 34°24' W 013°34'1 5.5
2019-Oct-07 02:58N 34°25' W 013°33'22 5.9
2019-Oct-06 23:16N 34°32' W 013°08'151 4.6
2019-Oct-05 14:24N 36°49' W 011°49'47 5.2
2019-Oct-05 05:16N 37°23' W 011°07'1 5.1
2019-Oct-05 04:58N 37°24' W 011°06'4 4.9
2019-Oct-05 04:11N 37°27' W 011°03'2 4.8
2019-Oct-05 03:44N 37°29' W 011°02'2 4.7
2019-Oct-05 03:23N 37°30' W 011°01'2 4.7
2019-Oct-05 03:01N 37°32' W 010°59'2 4.9
2019-Oct-05 02:30N 37°34' W 010°57'3 4.9
2019-Oct-05 01:52N 37°36' W 010°55'2 5.0
2019-Oct-05 01:30N 37°37' W 010°53'3 4.9
2019-Oct-05 00:59N 37°39' W 010°51'2 4.9
2019-Oct-05 00:31N 37°40' W 010°48'3 5.1
2019-Oct-04 23:57N 37°42' W 010°46'3 5.4
2019-Oct-04 23:28N 37°44' W 010°43'3 5.5
2019-Oct-04 22:56N 37°46' W 010°40'2 5.3
2019-Oct-04 22:30N 37°47' W 010°38'3 5.2
2019-Oct-04 22:00N 37°49' W 010°36'3 5.1
2019-Oct-04 21:26N 37°51' W 010°33'3 5.0
2019-Oct-04 20:44N 37°53' W 010°30'1 4.9
2019-Oct-04 20:30N 37°54' W 010°29'2 4.9
2019-Oct-04 20:01N 37°56' W 010°26'4 5.1
2019-Oct-04 19:08N 37°58' W 010°22'1 5.2
2019-Oct-04 19:01N 37°58' W 010°21'4 5.4
2019-Oct-04 18:17N 38°00' W 010°17'2 5.8
2019-Oct-04 18:00N 38°01' W 010°15'3 5.7
2019-Oct-04 17:31N 38°03' W 010°12'3 5.7
2019-Oct-04 17:00N 38°04' W 010°09'3 5.8
2019-Oct-04 16:28N 38°06' W 010°06'3 6.0
2019-Oct-04 15:56N 38°08' W 010°03'3 5.8
2019-Oct-04 15:23N 38°11' W 009°60'2 5.9
2019-Oct-04 15:00N 38°12' W 009°57'3 6.2
2019-Oct-04 14:28N 38°14' W 009°54'3 6.4
2019-Oct-04 14:00N 38°16' W 009°51'3 6.9
2019-Oct-04 13:30N 38°18' W 009°48'4 7.1
2019-Oct-04 13:00N 38°20' W 009°44'3 7.0
2019-Oct-04 12:30N 38°22' W 009°41'3 6.8
2019-Oct-04 12:00N 38°24' W 009°37'3 6.8
2019-Oct-04 11:31N 38°27' W 009°34'3 6.8
2019-Oct-04 11:01N 38°29' W 009°31'3 6.9
2019-Oct-04 10:30N 38°32' W 009°29'3 7.0
2019-Oct-04 10:01N 38°35' W 009°26'4 7.1
2019-Oct-04 09:31N 38°37' W 009°22'4 8.2
2019-Oct-04 09:00N 38°40' W 009°19'4 8.4
2019-Oct-04 08:31N 38°41' W 009°14'4 8.4
2019-Oct-04 08:00N 38°42' W 009°08'4 7.8
2019-Oct-04 07:29N 38°45' W 009°05'0 0.1
2019-Oct-04 06:59N 38°46' W 009°05'0 0.0
2019-Oct-04 06:26N 38°46' W 009°05'0 0.0
2019-Oct-04 05:57N 38°46' W 009°05'0 0.0
2019-Oct-04 05:30N 38°46' W 009°05'0 0.0
2019-Oct-04 05:00N 38°46' W 009°05'0 0.0
2019-Oct-04 04:30N 38°46' W 009°05'0 0.0
2019-Oct-04 04:00N 38°46' W 009°05'0 0.0
2019-Oct-04 03:30N 38°46' W 009°05'0 0.0
2019-Oct-04 02:57N 38°46' W 009°05'0 0.0
2019-Oct-04 02:31N 38°46' W 009°05'0 0.0
2019-Oct-04 02:00N 38°46' W 009°05'0 0.0
2019-Oct-04 01:30N 38°46' W 009°05'0 0.0
2019-Oct-04 01:00N 38°46' W 009°05'0 0.0
2019-Oct-04 00:30N 38°46' W 009°05'0 0.0
2019-Oct-04 00:00N 38°46' W 009°05'0 0.0
2019-Oct-03 23:28N 38°46' W 009°05'0 0.0
2019-Oct-03 23:00N 38°46' W 009°05'0 0.0
2019-Oct-03 22:30N 38°46' W 009°05'0 0.0
2019-Oct-03 22:00N 38°46' W 009°05'0 0.0
2019-Oct-03 21:30N 38°46' W 009°05'0 0.0
2019-Oct-03 21:00N 38°46' W 009°05'0 0.0
2019-Oct-03 20:27N 38°46' W 009°05'0 0.0
2019-Oct-03 20:00N 38°46' W 009°05'0 0.0
2019-Oct-03 19:30N 38°46' W 009°05'0 0.0
2019-Oct-03 19:00N 38°46' W 009°05'0 0.0
2019-Oct-03 18:30N 38°46' W 009°05'0 0.0
2019-Oct-03 18:00N 38°46' W 009°05'0 0.0
2019-Oct-03 17:30N 38°46' W 009°05'0 0.0
2019-Oct-03 17:00N 38°46' W 009°05'0 0.0
2019-Oct-03 16:30N 38°46' W 009°05'0 0.0
2019-Oct-03 16:00N 38°46' W 009°05'0 0.0
2019-Oct-03 15:30N 38°46' W 009°05'0 0.0
2019-Oct-03 15:00N 38°46' W 009°05'0 0.0
2019-Oct-03 14:30N 38°46' W 009°05'0 0.0
2019-Oct-03 14:00N 38°46' W 009°05'0 0.0
2019-Oct-03 13:27N 38°46' W 009°05'0 0.0
2019-Oct-03 13:00N 38°46' W 009°05'0 0.0
2019-Oct-03 12:30N 38°46' W 009°05'0 0.0
2019-Oct-03 12:00N 38°46' W 009°05'0 0.0
2019-Oct-03 11:30N 38°46' W 009°05'0 0.0
2019-Oct-03 11:00N 38°46' W 009°05'0 0.0
2019-Oct-03 10:30N 38°46' W 009°05'0 0.0
2019-Oct-03 10:00N 38°46' W 009°05'0 0.0
2019-Oct-03 09:27N 38°46' W 009°05'0 0.0
2019-Oct-03 09:00N 38°46' W 009°05'0 0.0
2019-Oct-03 08:30N 38°46' W 009°05'0 0.0
2019-Oct-03 08:00N 38°46' W 009°05'0 0.0
2019-Oct-03 07:30N 38°46' W 009°05'0 0.0
2019-Oct-03 07:00N 38°46' W 009°05'0 0.0
2019-Oct-03 06:30N 38°46' W 009°05'0 0.0
2019-Oct-03 06:00N 38°46' W 009°05'0 0.0
2019-Oct-03 05:30N 38°46' W 009°05'0 0.0
2019-Oct-03 04:57N 38°46' W 009°05'0 0.0
2019-Oct-03 04:30N 38°46' W 009°05'0 0.0
2019-Oct-03 04:00N 38°46' W 009°05'0 0.0
2019-Oct-03 03:30N 38°46' W 009°05'0 0.0
2019-Oct-03 02:57N 38°46' W 009°05'0 0.0
2019-Oct-03 02:27N 38°46' W 009°05'0 0.0
2019-Oct-03 01:58N 38°46' W 009°05'0 0.0
2019-Oct-03 01:30N 38°46' W 009°05'0 0.0
2019-Oct-03 01:00N 38°46' W 009°05'0 0.0
2019-Oct-03 00:30N 38°46' W 009°05'0 0.0
2019-Oct-03 00:00N 38°46' W 009°05'0 0.0
2019-Oct-02 23:30N 38°46' W 009°05'0 0.0
2019-Oct-02 23:00N 38°46' W 009°05'0 0.0
2019-Oct-02 22:30N 38°46' W 009°05'0 0.0
2019-Oct-02 22:00N 38°46' W 009°05'0 0.0
2019-Oct-02 21:30N 38°46' W 009°05'0 0.0
2019-Oct-02 21:00N 38°46' W 009°05'0 0.0
2019-Oct-02 20:30N 38°46' W 009°05'0 0.0
2019-Oct-02 20:00N 38°46' W 009°05'0 0.0
2019-Oct-02 19:30N 38°46' W 009°05'0 0.0
2019-Oct-02 19:00N 38°46' W 009°05'0 0.0
2019-Oct-02 18:27N 38°46' W 009°05'0 0.0
2019-Oct-02 18:00N 38°46' W 009°05'0 0.0
2019-Oct-02 17:30N 38°46' W 009°05'0 0.0
2019-Oct-02 17:00N 38°46' W 009°05'0 0.0
2019-Oct-02 16:30N 38°46' W 009°05'0 0.0
2019-Oct-02 16:00N 38°46' W 009°05'0 0.0
2019-Oct-02 15:30N 38°46' W 009°05'0 0.0
2019-Oct-02 15:00N 38°46' W 009°05'0 0.0
2019-Oct-02 14:30N 38°46' W 009°05'0 0.0
2019-Oct-02 14:00N 38°46' W 009°05'0 0.0
2019-Oct-02 13:30N 38°46' W 009°05'0 0.1
2019-Oct-02 13:01N 38°46' W 009°05'3 6.8
2019-Oct-02 12:30N 38°42' W 009°07'4 7.9
2019-Oct-02 12:01N 38°41' W 009°12'3 5.8
2019-Oct-02 11:30N 38°41' W 009°16'2 4.7
2019-Oct-02 11:00N 38°40' W 009°18'2 5.0
2019-Oct-02 10:30N 38°38' W 009°21'2 3.9
2019-Oct-02 10:00N 38°37' W 009°23'1 2.9
2019-Oct-02 09:30N 38°36' W 009°24'1 2.8
2019-Oct-02 09:00N 38°34' W 009°24'2 4.1
2019-Oct-02 08:30N 38°32' W 009°24'2 3.9
2019-Oct-02 08:01N 38°31' W 009°25'2 4.2
2019-Oct-02 07:30N 38°28' W 009°25'2 3.9
2019-Oct-02 07:00N 38°27' W 009°26'2 3.6
2019-Oct-02 06:30N 38°25' W 009°26'2 3.3
2019-Oct-02 06:00N 38°23' W 009°27'2 3.5
2019-Oct-02 05:30N 38°21' W 009°27'2 3.5
2019-Oct-02 05:00N 38°20' W 009°28'2 3.2
2019-Oct-02 04:31N 38°18' W 009°28'2 3.0
2019-Oct-02 04:00N 38°17' W 009°28'2 3.1
2019-Oct-02 03:31N 38°15' W 009°29'2 3.9
2019-Oct-02 03:00N 38°13' W 009°29'2 3.7
2019-Oct-02 02:31N 38°11' W 009°29'2 3.8
2019-Oct-02 02:00N 38°10' W 009°29'2 3.9
2019-Oct-02 01:30N 38°08' W 009°30'2 3.7
2019-Oct-02 01:00N 38°06' W 009°30'2 3.8
2019-Oct-02 00:30N 38°04' W 009°31'2 3.7
2019-Oct-02 00:00N 38°02' W 009°31'2 3.7
2019-Oct-01 23:30N 38°00' W 009°31'2 3.7
2019-Oct-01 23:01N 37°58' W 009°31'2 3.7
2019-Oct-01 22:29N 37°57' W 009°31'3 4.1
2019-Oct-01 21:41N 37°53' W 009°31'1 4.1
2019-Oct-01 21:23N 37°52' W 009°31'2 3.3
2019-Oct-01 20:50N 37°50' W 009°31'1 3.3
2019-Oct-01 20:30N 37°49' W 009°31'52 4.0
2019-Oct-01 07:16N 36°58' W 009°19'38 4.0
2019-Sep-30 21:48N 36°38' W 008°39'3 4.0
2019-Sep-30 20:59N 36°37' W 008°35'2 4.4
2019-Sep-30 20:26N 36°36' W 008°32'3 4.4
2019-Sep-30 19:47N 36°35' W 008°29'1 4.2
2019-Sep-30 19:28N 36°35' W 008°27'2 4.6
2019-Sep-30 19:00N 36°34' W 008°25'2 4.7
2019-Sep-30 18:28N 36°33' W 008°22'3 5.6
2019-Sep-30 17:59N 36°32' W 008°19'7 5.6
2019-Sep-30 16:45N 36°30' W 008°10'1 5.6
2019-Sep-30 16:29N 36°30' W 008°09'3 5.6
2019-Sep-30 16:00N 36°29' W 008°05'3 5.6
2019-Sep-30 15:30N 36°28' W 008°02'6 5.6
2019-Sep-30 14:24N 36°26' W 007°55'2 5.8
2019-Sep-30 14:00N 36°26' W 007°52'3 5.8
2019-Sep-30 13:28N 36°25' W 007°48'3 5.8
2019-Sep-30 12:57N 36°24' W 007°45'3 6.0
2019-Sep-30 12:22N 36°22' W 007°41'2 6.1
2019-Sep-30 12:00N 36°22' W 007°38'3 6.1
2019-Sep-30 11:30N 36°21' W 007°35'3 6.1
2019-Sep-30 11:00N 36°20' W 007°31'3 6.3
2019-Sep-30 10:30N 36°18' W 007°28'3 6.3
2019-Sep-30 10:00N 36°17' W 007°24'3 6.1
2019-Sep-30 09:30N 36°16' W 007°20'3 6.1
2019-Sep-30 08:59N 36°15' W 007°16'3 6.3
2019-Sep-30 08:30N 36°14' W 007°13'3 6.3
2019-Sep-30 08:00N 36°13' W 007°09'3 6.4
2019-Sep-30 07:30N 36°12' W 007°05'3 6.2
2019-Sep-30 07:00N 36°11' W 007°02'3 6.2
2019-Sep-30 06:30N 36°11' W 006°58'3 6.6
2019-Sep-30 06:00N 36°10' W 006°54'4 6.9
2019-Sep-30 05:29N 36°09' W 006°50'3 6.9
2019-Sep-30 05:00N 36°08' W 006°46'4 7.4
2019-Sep-30 04:31N 36°07' W 006°42'4 7.3
2019-Sep-30 04:00N 36°05' W 006°37'39 0.8
2019-Sep-28 03:16N 35°56' W 005°51'3 5.1
2019-Sep-28 02:39N 35°56' W 005°55'2 4.7
2019-Sep-28 02:18N 35°58' W 005°56'3 4.9
2019-Sep-28 01:40N 36°00' W 005°59'2 3.7
2019-Sep-28 01:15N 36°01' W 005°60'  

Dump ship's entire track history